Charlotte Borchard — V7AO8 — position and weather

sailwx.info

Track history (hours):
 
Tides and Currents Weather Stations Pressure Air Temp Water Temp Dewpoint Dewpoint Depression Visibility Wind Speed Wind Dir Waves Ship Positions

Charlotte Borchard

Last reported at 2018-Feb-21 00:59 UTC. Time now 2018-Feb-21 01:24 UTC.
Position N 40°11' W 009°27'.

Length 159 m; draft 8.6 m.

Type: Ship. MMSI: 538005039.

Date/timePositionNaut miles runAvg speedWind from/ knotsBaromVisibWave heightAir tempDewpointWater temp
2018-Feb-21 00:59N 40°11' W 009°27'713.7
2018-Feb-21 00:30N 40°05' W 009°32'813.6
2018-Feb-20 23:55N 39°58' W 009°37'613.4
2018-Feb-20 23:30N 39°53' W 009°40'613.2
2018-Feb-20 23:00N 39°47' W 009°44'713.3
2018-Feb-20 22:30N 39°41' W 009°47'713.5
2018-Feb-20 22:00N 39°34' W 009°48'713.8
2018-Feb-20 21:30N 39°27' W 009°49'713.9
2018-Feb-20 21:01N 39°20' W 009°50'713.7
2018-Feb-20 20:30N 39°14' W 009°50'713.5
2018-Feb-20 20:00N 39°07' W 009°50'713.8
2018-Feb-20 19:30N 38°60' W 009°50'713.9
2018-Feb-20 19:00N 38°53' W 009°51'714.3
2018-Feb-20 18:31N 38°46' W 009°50'714.6
2018-Feb-20 18:00N 38°39' W 009°49'714.7
2018-Feb-20 17:30N 38°31' W 009°49'714.5
2018-Feb-20 17:00N 38°24' W 009°47'714.1
2018-Feb-20 16:31N 38°17' W 009°44'714.1
2018-Feb-20 16:00N 38°11' W 009°42'714.5
2018-Feb-20 15:30N 38°04' W 009°39'714.8
2018-Feb-20 15:00N 37°56' W 009°38'714.8
2018-Feb-20 14:30N 37°49' W 009°36'815.1
2018-Feb-20 14:00N 37°42' W 009°34'815.2
2018-Feb-20 13:30N 37°34' W 009°32'815.3
2018-Feb-20 13:00N 37°27' W 009°29'815.3
2018-Feb-20 12:30N 37°19' W 009°27'815.3
2018-Feb-20 12:00N 37°12' W 009°25'915.3
2018-Feb-20 11:26N 37°03' W 009°22'2614.3
2018-Feb-20 09:38N 36°43' W 009°04'215.1
2018-Feb-20 09:29N 36°42' W 009°01'915.1
2018-Feb-20 08:54N 36°40' W 008°50'615.3
2018-Feb-20 08:30N 36°38' W 008°43'15516.0
2018-Feb-19 22:48N 35°58' W 005°37'613.8
2018-Feb-19 22:20N 35°59' W 005°29'413.5
2018-Feb-19 22:00N 36°00' W 005°24'714.4
2018-Feb-19 21:30N 36°01' W 005°15'21415.8
2018-Feb-19 07:55N 37°13' W 001°04'817.0
2018-Feb-19 07:28N 37°18' W 000°57'816.9
2018-Feb-19 07:00N 37°23' W 000°49'816.6
2018-Feb-19 06:30N 37°29' W 000°41'815.9
2018-Feb-19 06:00N 37°34' W 000°34'815.4
2018-Feb-19 05:30N 37°41' W 000°29'815.4
2018-Feb-19 04:58N 37°48' W 000°23'  
2018-Feb-16 20:45N 40°32' E 014°04'1117.5
2018-Feb-16 20:06N 40°30' E 014°19'317.1
2018-Feb-16 19:57N 40°31' E 014°23'71 2.7
2018-Feb-15 17:48N 39°28' E 015°04'3514.9
2018-Feb-15 15:27N 38°56' E 015°22'714.9
2018-Feb-15 14:58N 38°49' E 015°25'714.9
2018-Feb-15 14:30N 38°42' E 015°28'714.7
2018-Feb-15 14:00N 38°36' E 015°32'2214.3
2018-Feb-15 12:29N 38°15' E 015°41'1212.2
2018-Feb-15 11:32N 38°04' E 015°36'212.6
2018-Feb-15 11:24N 38°03' E 015°36'711.9
2018-Feb-15 10:47N 37°56' E 015°38'311.7
2018-Feb-15 10:30N 37°53' E 015°41'713.3
2018-Feb-15 10:00N 37°51' E 015°49'70815.2
2018-Feb-13 11:27N 35°53' E 030°22'266 7.3
2018-Feb-11 22:59N 33°09' E 034°35'714.7
2018-Feb-11 22:30N 33°02' E 034°37'816.3
2018-Feb-11 22:00N 33°00' E 034°46'714.1
2018-Feb-11 21:30N 32°55' E 034°53'7 0.8
2018-Feb-11 11:39N 32°51' E 035°00'1 4.9
2018-Feb-11 11:30N 32°51' E 034°59'713.0
2018-Feb-11 10:58N 32°52' E 034°51'818.3
2018-Feb-11 10:31N 32°44' E 034°48'918.2
2018-Feb-11 10:00N 32°35' E 034°45'918.1
2018-Feb-11 09:31N 32°26' E 034°42'918.4
2018-Feb-11 09:01N 32°18' E 034°39'918.5
2018-Feb-11 08:31N 32°09' E 034°36'19 9.0
2018-Feb-11 06:25N 31°50' E 034°39'  
Track history (hours):
 
Tides and Currents Weather Stations Pressure Air Temp Water Temp Dewpoint Dewpoint Depression Visibility Wind Speed Wind Dir Waves Ship Positions

Charlotte Borchard

Last reported at 2018-Feb-21 00:59 UTC. Time now 2018-Feb-21 01:24 UTC.
Position N 40°11' W 009°27'.

Length 159 m; draft 8.6 m.

Type: Ship. MMSI: 538005039.

Date/timePositionNaut miles runAvg speedWind from/ knotsBaromVisibWave heightAir tempDewpointWater temp
2018-Feb-21 00:59N 40°11' W 009°27'713.7
2018-Feb-21 00:30N 40°05' W 009°32'813.6
2018-Feb-20 23:55N 39°58' W 009°37'613.4
2018-Feb-20 23:30N 39°53' W 009°40'613.2
2018-Feb-20 23:00N 39°47' W 009°44'713.3
2018-Feb-20 22:30N 39°41' W 009°47'713.5
2018-Feb-20 22:00N 39°34' W 009°48'713.8
2018-Feb-20 21:30N 39°27' W 009°49'713.9
2018-Feb-20 21:01N 39°20' W 009°50'713.7
2018-Feb-20 20:30N 39°14' W 009°50'713.5
2018-Feb-20 20:00N 39°07' W 009°50'713.8
2018-Feb-20 19:30N 38°60' W 009°50'713.9
2018-Feb-20 19:00N 38°53' W 009°51'714.3
2018-Feb-20 18:31N 38°46' W 009°50'714.6
2018-Feb-20 18:00N 38°39' W 009°49'714.7
2018-Feb-20 17:30N 38°31' W 009°49'714.5
2018-Feb-20 17:00N 38°24' W 009°47'714.1
2018-Feb-20 16:31N 38°17' W 009°44'714.1
2018-Feb-20 16:00N 38°11' W 009°42'714.5
2018-Feb-20 15:30N 38°04' W 009°39'714.8
2018-Feb-20 15:00N 37°56' W 009°38'714.8
2018-Feb-20 14:30N 37°49' W 009°36'815.1
2018-Feb-20 14:00N 37°42' W 009°34'815.2
2018-Feb-20 13:30N 37°34' W 009°32'815.3
2018-Feb-20 13:00N 37°27' W 009°29'815.3
2018-Feb-20 12:30N 37°19' W 009°27'815.3
2018-Feb-20 12:00N 37°12' W 009°25'915.3
2018-Feb-20 11:26N 37°03' W 009°22'2614.3
2018-Feb-20 09:38N 36°43' W 009°04'215.1
2018-Feb-20 09:29N 36°42' W 009°01'915.1
2018-Feb-20 08:54N 36°40' W 008°50'615.3
2018-Feb-20 08:30N 36°38' W 008°43'15516.0
2018-Feb-19 22:48N 35°58' W 005°37'613.8
2018-Feb-19 22:20N 35°59' W 005°29'413.5
2018-Feb-19 22:00N 36°00' W 005°24'714.4
2018-Feb-19 21:30N 36°01' W 005°15'21415.8
2018-Feb-19 07:55N 37°13' W 001°04'817.0
2018-Feb-19 07:28N 37°18' W 000°57'816.9
2018-Feb-19 07:00N 37°23' W 000°49'816.6
2018-Feb-19 06:30N 37°29' W 000°41'815.9
2018-Feb-19 06:00N 37°34' W 000°34'815.4
2018-Feb-19 05:30N 37°41' W 000°29'815.4
2018-Feb-19 04:58N 37°48' W 000°23'  
2018-Feb-16 20:45N 40°32' E 014°04'1117.5
2018-Feb-16 20:06N 40°30' E 014°19'317.1
2018-Feb-16 19:57N 40°31' E 014°23'71 2.7
2018-Feb-15 17:48N 39°28' E 015°04'3514.9
2018-Feb-15 15:27N 38°56' E 015°22'714.9
2018-Feb-15 14:58N 38°49' E 015°25'714.9
2018-Feb-15 14:30N 38°42' E 015°28'714.7
2018-Feb-15 14:00N 38°36' E 015°32'2214.3
2018-Feb-15 12:29N 38°15' E 015°41'1212.2
2018-Feb-15 11:32N 38°04' E 015°36'212.6
2018-Feb-15 11:24N 38°03' E 015°36'711.9
2018-Feb-15 10:47N 37°56' E 015°38'311.7
2018-Feb-15 10:30N 37°53' E 015°41'713.3
2018-Feb-15 10:00N 37°51' E 015°49'70815.2
2018-Feb-13 11:27N 35°53' E 030°22'266 7.3
2018-Feb-11 22:59N 33°09' E 034°35'714.7
2018-Feb-11 22:30N 33°02' E 034°37'816.3
2018-Feb-11 22:00N 33°00' E 034°46'714.1
2018-Feb-11 21:30N 32°55' E 034°53'7 0.8
2018-Feb-11 11:39N 32°51' E 035°00'1 4.9
2018-Feb-11 11:30N 32°51' E 034°59'713.0
2018-Feb-11 10:58N 32°52' E 034°51'818.3
2018-Feb-11 10:31N 32°44' E 034°48'918.2
2018-Feb-11 10:00N 32°35' E 034°45'918.1
2018-Feb-11 09:31N 32°26' E 034°42'918.4
2018-Feb-11 09:01N 32°18' E 034°39'918.5
2018-Feb-11 08:31N 32°09' E 034°36'19 9.0
2018-Feb-11 06:25N 31°50' E 034°39'  

Dump ship's entire track history